sensor_id;sensor_type;location;lat;lon;timestamp;pressure;altitude;pressure_sealevel;temperature;humidity
32237;BME280;18726;44.732;10.550;2023-02-18T00:02:39;102392.88;;;7.08;100.00
32237;BME280;18726;44.732;10.550;2023-02-18T00:05:43;102392.91;;;7.03;100.00
32237;BME280;18726;44.732;10.550;2023-02-18T00:08:47;102390.19;;;7.08;100.00
32237;BME280;18726;44.732;10.550;2023-02-18T00:11:51;102395.25;;;7.20;100.00
32237;BME280;18726;44.732;10.550;2023-02-18T00:14:55;102413.63;;;7.52;100.00
32237;BME280;18726;44.732;10.550;2023-02-18T00:17:59;102420.34;;;7.59;100.00
32237;BME280;18726;44.732;10.550;2023-02-18T00:21:04;102411.38;;;7.64;100.00
32237;BME280;18726;44.732;10.550;2023-02-18T00:24:08;102420.53;;;7.68;100.00
32237;BME280;18726;44.732;10.550;2023-02-18T00:27:14;102419.16;;;7.99;100.00
32237;BME280;18726;44.732;10.550;2023-02-18T00:30:17;102415.03;;;8.31;100.00
32237;BME280;18726;44.732;10.550;2023-02-18T00:33:21;102414.09;;;8.17;100.00
32237;BME280;18726;44.732;10.550;2023-02-18T00:36:26;102402.69;;;8.20;100.00
32237;BME280;18726;44.732;10.550;2023-02-18T00:39:30;102407.66;;;7.55;100.00
32237;BME280;18726;44.732;10.550;2023-02-18T00:42:33;102409.91;;;7.48;100.00
32237;BME280;18726;44.732;10.550;2023-02-18T00:45:38;102405.84;;;7.11;100.00
32237;BME280;18726;44.732;10.550;2023-02-18T00:48:42;102406.78;;;6.91;100.00
32237;BME280;18726;44.732;10.550;2023-02-18T00:51:46;102408.28;;;6.63;100.00
32237;BME280;18726;44.732;10.550;2023-02-18T00:54:50;102405.63;;;6.48;100.00
32237;BME280;18726;44.732;10.550;2023-02-18T00:57:55;102401.91;;;6.29;100.00
32237;BME280;18726;44.732;10.550;2023-02-18T01:00:59;102401.94;;;6.14;100.00
32237;BME280;18726;44.732;10.550;2023-02-18T01:04:03;102399.25;;;6.14;100.00
32237;BME280;18726;44.732;10.550;2023-02-18T01:07:08;102399.22;;;6.34;100.00
32237;BME280;18726;44.732;10.550;2023-02-18T01:10:13;102397.16;;;6.70;100.00
32237;BME280;18726;44.732;10.550;2023-02-18T01:13:16;102393.59;;;6.80;100.00
32237;BME280;18726;44.732;10.550;2023-02-18T01:16:21;102395.53;;;7.18;100.00
32237;BME280;18726;44.732;10.550;2023-02-18T01:19:25;102395.09;;;6.96;100.00
32237;BME280;18726;44.732;10.550;2023-02-18T01:22:29;102397.94;;;6.75;100.00
32237;BME280;18726;44.732;10.550;2023-02-18T01:25:33;102394.16;;;6.76;100.00
32237;BME280;18726;44.732;10.550;2023-02-18T01:28:39;102391.56;;;6.56;100.00
32237;BME280;18726;44.732;10.550;2023-02-18T01:31:43;102389.00;;;6.21;100.00
32237;BME280;18726;44.732;10.550;2023-02-18T01:34:47;102386.56;;;6.09;100.00
32237;BME280;18726;44.732;10.550;2023-02-18T01:37:50;102376.84;;;6.23;100.00
32237;BME280;18726;44.732;10.550;2023-02-18T01:40:54;102367.03;;;6.42;100.00
32237;BME280;18726;44.732;10.550;2023-02-18T01:44:23;102374.25;;;6.62;100.00
32237;BME280;18726;44.732;10.550;2023-02-18T01:47:27;102376.94;;;6.62;100.00
32237;BME280;18726;44.732;10.550;2023-02-18T01:50:32;102373.88;;;6.25;100.00
32237;BME280;18726;44.732;10.550;2023-02-18T01:53:55;102367.75;;;5.89;100.00
32237;BME280;18726;44.732;10.550;2023-02-18T01:57:07;102365.88;;;5.59;100.00
32237;BME280;18726;44.732;10.550;2023-02-18T02:00:14;102370.22;;;5.14;100.00
32237;BME280;18726;44.732;10.550;2023-02-18T02:03:23;102365.88;;;4.98;100.00
32237;BME280;18726;44.732;10.550;2023-02-18T02:06:27;102354.56;;;5.21;100.00
32237;BME280;18726;44.732;10.550;2023-02-18T02:09:31;102350.28;;;5.40;100.00
32237;BME280;18726;44.732;10.550;2023-02-18T02:16:07;102347.56;;;5.00;100.00
32237;BME280;18726;44.732;10.550;2023-02-18T02:36:13;102343.81;;;5.47;100.00
32237;BME280;18726;44.732;10.550;2023-02-18T02:39:39;102337.81;;;5.95;100.00
32237;BME280;18726;44.732;10.550;2023-02-18T02:43:11;102342.06;;;6.17;100.00
32237;BME280;18726;44.732;10.550;2023-02-18T02:46:22;102340.50;;;6.00;100.00
32237;BME280;18726;44.732;10.550;2023-02-18T02:52:46;102326.25;;;5.54;100.00
32237;BME280;18726;44.732;10.550;2023-02-18T02:55:56;102340.22;;;5.87;100.00
32237;BME280;18726;44.732;10.550;2023-02-18T02:59:03;102328.91;;;6.05;100.00
32237;BME280;18726;44.732;10.550;2023-02-18T03:13:08;102332.81;;;6.33;100.00
32237;BME280;18726;44.732;10.550;2023-02-18T03:22:32;102330.19;;;6.07;100.00
32237;BME280;18726;44.732;10.550;2023-02-18T03:25:41;102325.66;;;6.62;100.00
32237;BME280;18726;44.732;10.550;2023-02-18T03:28:45;102331.66;;;6.49;100.00
32237;BME280;18726;44.732;10.550;2023-02-18T03:31:54;102331.59;;;6.05;100.00
32237;BME280;18726;44.732;10.550;2023-02-18T03:35:07;102329.22;;;5.68;100.00
32237;BME280;18726;44.732;10.550;2023-02-18T03:38:22;102336.25;;;5.38;100.00
32237;BME280;18726;44.732;10.550;2023-02-18T03:41:26;102331.94;;;5.27;100.00
32237;BME280;18726;44.732;10.550;2023-02-18T03:44:30;102328.72;;;5.40;100.00
32237;BME280;18726;44.732;10.550;2023-02-18T03:47:34;102331.41;;;5.40;100.00
32237;BME280;18726;44.732;10.550;2023-02-18T03:50:38;102336.25;;;5.38;100.00
32237;BME280;18726;44.732;10.550;2023-02-18T03:53:42;102335.19;;;5.24;100.00
32237;BME280;18726;44.732;10.550;2023-02-18T03:56:46;102331.41;;;5.30;100.00
32237;BME280;18726;44.732;10.550;2023-02-18T03:59:49;102328.72;;;5.40;100.00
32237;BME280;18726;44.732;10.550;2023-02-18T04:02:53;102332.22;;;5.41;100.00
32237;BME280;18726;44.732;10.550;2023-02-18T04:05:57;102326.84;;;5.41;100.00
32237;BME280;18726;44.732;10.550;2023-02-18T04:09:01;102322.75;;;5.59;100.00
32237;BME280;18726;44.732;10.550;2023-02-18T04:12:10;102321.69;;;5.55;100.00
32237;BME280;18726;44.732;10.550;2023-02-18T04:15:14;102318.44;;;5.63;100.00
32237;BME280;18726;44.732;10.550;2023-02-18T04:18:18;102328.69;;;5.71;100.00
32237;BME280;18726;44.732;10.550;2023-02-18T04:21:22;102336.78;;;5.61;100.00
32237;BME280;18726;44.732;10.550;2023-02-18T04:24:26;102330.03;;;5.53;100.00
32237;BME280;18726;44.732;10.550;2023-02-18T04:27:30;102340.00;;;5.53;100.00
32237;BME280;18726;44.732;10.550;2023-02-18T04:30:33;102338.94;;;5.54;100.00
32237;BME280;18726;44.732;10.550;2023-02-18T04:33:37;102333.00;;;5.52;100.00
32237;BME280;18726;44.732;10.550;2023-02-18T04:36:41;102332.19;;;5.51;100.00
32237;BME280;18726;44.732;10.550;2023-02-18T04:39:45;102334.13;;;5.46;100.00
32237;BME280;18726;44.732;10.550;2023-02-18T04:42:50;102341.63;;;5.49;100.00
32237;BME280;18726;44.732;10.550;2023-02-18T04:45:53;102343.78;;;5.52;100.00
32237;BME280;18726;44.732;10.550;2023-02-18T04:48:56;102342.47;;;5.34;100.00
32237;BME280;18726;44.732;10.550;2023-02-18T04:52:00;102347.56;;;5.25;100.00
32237;BME280;18726;44.732;10.550;2023-02-18T04:55:05;102342.19;;;5.30;100.00
32237;BME280;18726;44.732;10.550;2023-02-18T04:58:09;102341.66;;;5.33;100.00
32237;BME280;18726;44.732;10.550;2023-02-18T05:01:13;102333.03;;;5.31;100.00
32237;BME280;18726;44.732;10.550;2023-02-18T05:04:16;102342.19;;;5.46;100.00
32237;BME280;18726;44.732;10.550;2023-02-18T05:07:20;102341.66;;;5.23;100.00
32237;BME280;18726;44.732;10.550;2023-02-18T05:10:24;102340.84;;;5.43;100.00
32237;BME280;18726;44.732;10.550;2023-02-18T05:13:27;102339.78;;;5.39;100.00
32237;BME280;18726;44.732;10.550;2023-02-18T05:16:31;102334.13;;;5.46;100.00
32237;BME280;18726;44.732;10.550;2023-02-18T05:19:35;102338.41;;;5.52;100.00
32237;BME280;18726;44.732;10.550;2023-02-18T05:22:39;102340.50;;;5.80;100.00
32237;BME280;18726;44.732;10.550;2023-02-18T05:25:42;102342.44;;;5.54;100.00
32237;BME280;18726;44.732;10.550;2023-02-18T05:28:46;102348.91;;;5.58;100.00
32237;BME280;18726;44.732;10.550;2023-02-18T05:31:49;102350.81;;;5.37;100.00
32237;BME280;18726;44.732;10.550;2023-02-18T05:34:54;102351.88;;;5.26;100.00
32237;BME280;18726;44.732;10.550;2023-02-18T05:37:58;102350.53;;;5.08;100.00
32237;BME280;18726;44.732;10.550;2023-02-18T05:41:01;102353.50;;;5.07;100.00
32237;BME280;18726;44.732;10.550;2023-02-18T05:44:05;102353.50;;;5.07;100.00
32237;BME280;18726;44.732;10.550;2023-02-18T05:47:28;102348.66;;;5.04;100.00
32237;BME280;18726;44.732;10.550;2023-02-18T05:50:32;102346.75;;;4.99;100.00
32237;BME280;18726;44.732;10.550;2023-02-18T05:53:36;102349.19;;;5.06;100.00
32237;BME280;18726;44.732;10.550;2023-02-18T05:56:42;102357.81;;;5.13;100.00
32237;BME280;18726;44.732;10.550;2023-02-18T05:59:47;102351.38;;;5.19;100.00
32237;BME280;18726;44.732;10.550;2023-02-18T06:02:51;102355.66;;;5.30;100.00
32237;BME280;18726;44.732;10.550;2023-02-18T06:05:54;102362.13;;;5.14;100.00
32237;BME280;18726;44.732;10.550;2023-02-18T06:08:58;102362.41;;;5.13;100.00
32237;BME280;18726;44.732;10.550;2023-02-18T06:12:01;102359.41;;;4.99;100.00
32237;BME280;18726;44.732;10.550;2023-02-18T06:15:06;102353.75;;;5.00;100.00
32237;BME280;18726;44.732;10.550;2023-02-18T06:18:10;102352.94;;;5.00;100.00
32237;BME280;18726;44.732;10.550;2023-02-18T06:21:13;102353.78;;;5.11;100.00
32237;BME280;18726;44.732;10.550;2023-02-18T06:24:17;102356.19;;;5.12;100.00
32237;BME280;18726;44.732;10.550;2023-02-18T06:27:20;102351.88;;;5.06;100.00
32237;BME280;18726;44.732;10.550;2023-02-18T06:30:24;102357.81;;;5.08;100.00
32237;BME280;18726;44.732;10.550;2023-02-18T06:33:27;102362.94;;;5.20;100.00
32237;BME280;18726;44.732;10.550;2023-02-18T06:36:31;102365.09;;;5.28;100.00
32237;BME280;18726;44.732;10.550;2023-02-18T06:39:35;102358.38;;;5.46;100.00
32237;BME280;18726;44.732;10.550;2023-02-18T06:42:39;102360.75;;;5.62;100.00
32237;BME280;18726;44.732;10.550;2023-02-18T06:45:43;102358.06;;;5.67;100.00
32237;BME280;18726;44.732;10.550;2023-02-18T06:48:47;102363.72;;;5.76;100.00
32237;BME280;18726;44.732;10.550;2023-02-18T06:51:51;102369.09;;;5.91;100.00
32237;BME280;18726;44.732;10.550;2023-02-18T06:54:54;102377.91;;;6.27;100.00
32237;BME280;18726;44.732;10.550;2023-02-18T06:57:57;102376.69;;;6.64;100.00
32237;BME280;18726;44.732;10.550;2023-02-18T07:01:01;102382.81;;;7.19;100.00
32237;BME280;18726;44.732;10.550;2023-02-18T07:04:05;102377.72;;;8.28;100.00
32237;BME280;18726;44.732;10.550;2023-02-18T07:07:09;102387.78;;;8.89;100.00
32237;BME280;18726;44.732;10.550;2023-02-18T07:10:12;102379.34;;;9.09;100.00
32237;BME280;18726;44.732;10.550;2023-02-18T07:13:16;102390.88;;;9.52;100.00
32237;BME280;18726;44.732;10.550;2023-02-18T07:16:20;102394.09;;;9.68;100.00
32237;BME280;18726;44.732;10.550;2023-02-18T07:19:23;102399.50;;;10.00;100.00
32237;BME280;18726;44.732;10.550;2023-02-18T07:22:27;102391.56;;;10.59;100.00
32237;BME280;18726;44.732;10.550;2023-02-18T07:25:31;102404.91;;;10.96;98.28
32237;BME280;18726;44.732;10.550;2023-02-18T07:28:35;102407.97;;;11.03;89.41
32237;BME280;18726;44.732;10.550;2023-02-18T07:31:39;102414.59;;;11.11;87.37
32237;BME280;18726;44.732;10.550;2023-02-18T07:34:43;102419.00;;;10.85;81.23
32237;BME280;18726;44.732;10.550;2023-02-18T07:37:48;102418.91;;;10.07;86.23
32237;BME280;18726;44.732;10.550;2023-02-18T07:40:52;102412.13;;;10.37;91.62
32237;BME280;18726;44.732;10.550;2023-02-18T07:43:56;102421.78;;;11.74;95.71
32237;BME280;18726;44.732;10.550;2023-02-18T07:46:59;102420.94;;;13.09;85.50
32237;BME280;18726;44.732;10.550;2023-02-18T07:50:05;102422.69;;;14.59;67.59
32237;BME280;18726;44.732;10.550;2023-02-18T07:53:10;102427.34;;;16.08;67.58
32237;BME280;18726;44.732;10.550;2023-02-18T07:56:14;102432.34;;;17.87;61.28
32237;BME280;18726;44.732;10.550;2023-02-18T07:59:18;102439.22;;;19.91;55.52
32237;BME280;18726;44.732;10.550;2023-02-18T08:02:22;102440.97;;;20.75;43.88
32237;BME280;18726;44.732;10.550;2023-02-18T08:05:26;102435.38;;;22.56;44.90
32237;BME280;18726;44.732;10.550;2023-02-18T08:08:31;102445.44;;;23.87;42.92
32237;BME280;18726;44.732;10.550;2023-02-18T08:11:35;102454.72;;;25.35;36.02
32237;BME280;18726;44.732;10.550;2023-02-18T08:14:38;102452.94;;;24.68;37.91
32237;BME280;18726;44.732;10.550;2023-02-18T08:17:42;102447.59;;;25.27;36.35
32237;BME280;18726;44.732;10.550;2023-02-18T08:20:46;102451.03;;;26.15;33.75
32237;BME280;18726;44.732;10.550;2023-02-18T08:23:51;102447.47;;;27.27;34.42
32237;BME280;18726;44.732;10.550;2023-02-18T08:26:55;102443.59;;;27.17;34.74
32237;BME280;18726;44.732;10.550;2023-02-18T08:29:58;102446.09;;;28.19;33.93
32237;BME280;18726;44.732;10.550;2023-02-18T08:33:02;102443.94;;;26.07;32.78
32237;BME280;18726;44.732;10.550;2023-02-18T08:36:06;102438.88;;;26.39;34.91
32237;BME280;18726;44.732;10.550;2023-02-18T08:39:12;102433.31;;;23.15;37.53
32237;BME280;18726;44.732;10.550;2023-02-18T08:42:16;102435.03;;;23.52;37.62
32237;BME280;18726;44.732;10.550;2023-02-18T08:45:19;102433.06;;;26.64;35.22
32237;BME280;18726;44.732;10.550;2023-02-18T08:48:24;102443.81;;;27.87;31.04
32237;BME280;18726;44.732;10.550;2023-02-18T08:51:28;102442.56;;;27.92;34.05
32237;BME280;18726;44.732;10.550;2023-02-18T08:54:32;102432.81;;;26.03;34.43
32237;BME280;18726;44.732;10.550;2023-02-18T08:57:36;102432.84;;;26.48;33.88
32237;BME280;18726;44.732;10.550;2023-02-18T09:00:41;102435.34;;;27.95;31.71
32237;BME280;18726;44.732;10.550;2023-02-18T09:03:45;102439.06;;;29.86;29.23
32237;BME280;18726;44.732;10.550;2023-02-18T09:06:49;102429.09;;;30.17;30.46
32237;BME280;18726;44.732;10.550;2023-02-18T09:10:00;102425.66;;;29.25;30.86
32237;BME280;18726;44.732;10.550;2023-02-18T09:13:04;102434.66;;;29.52;30.48
32237;BME280;18726;44.732;10.550;2023-02-18T09:16:12;102416.88;;;30.69;30.22
32237;BME280;18726;44.732;10.550;2023-02-18T09:19:16;102421.91;;;32.52;27.99
32237;BME280;18726;44.732;10.550;2023-02-18T09:22:20;102420.78;;;34.04;27.24
32237;BME280;18726;44.732;10.550;2023-02-18T09:25:24;102410.94;;;35.15;26.40
32237;BME280;18726;44.732;10.550;2023-02-18T09:28:27;102408.13;;;35.81;25.05
32237;BME280;18726;44.732;10.550;2023-02-18T09:31:31;102412.75;;;35.93;25.32
32237;BME280;18726;44.732;10.550;2023-02-18T09:34:35;102405.38;;;35.63;25.61
32237;BME280;18726;44.732;10.550;2023-02-18T09:37:39;102391.69;;;33.67;25.46
32237;BME280;18726;44.732;10.550;2023-02-18T09:40:46;102384.31;;;32.46;27.19
32237;BME280;18726;44.732;10.550;2023-02-18T09:43:56;102389.63;;;32.44;26.12
32237;BME280;18726;44.732;10.550;2023-02-18T09:47:15;102386.28;;;32.36;26.65
32237;BME280;18726;44.732;10.550;2023-02-18T09:50:26;102400.13;;;33.18;26.24
32237;BME280;18726;44.732;10.550;2023-02-18T09:53:31;102391.72;;;33.27;28.17
32237;BME280;18726;44.732;10.550;2023-02-18T09:56:36;102399.75;;;34.88;25.51
32237;BME280;18726;44.732;10.550;2023-02-18T09:59:40;102387.53;;;33.90;26.97
32237;BME280;18726;44.732;10.550;2023-02-18T10:03:00;102386.91;;;32.18;26.32
32237;BME280;18726;44.732;10.550;2023-02-18T10:06:15;102384.25;;;34.56;26.61
32237;BME280;18726;44.732;10.550;2023-02-18T10:09:34;102375.88;;;32.90;26.29
32237;BME280;18726;44.732;10.550;2023-02-18T10:12:38;102380.06;;;34.33;25.17
32237;BME280;18726;44.732;10.550;2023-02-18T10:15:43;102376.75;;;35.70;25.44
32237;BME280;18726;44.732;10.550;2023-02-18T10:18:54;102368.75;;;32.54;25.77
32237;BME280;18726;44.732;10.550;2023-02-18T10:22:00;102356.94;;;31.30;28.90
32237;BME280;18726;44.732;10.550;2023-02-18T10:25:06;102351.22;;;32.28;27.53
32237;BME280;18726;44.732;10.550;2023-02-18T10:28:10;102347.84;;;30.01;30.45
32237;BME280;18726;44.732;10.550;2023-02-18T10:31:19;102351.47;;;30.14;30.53
32237;BME280;18726;44.732;10.550;2023-02-18T10:41:12;102325.38;;;26.02;37.06
32237;BME280;18726;44.732;10.550;2023-02-18T10:44:32;102330.03;;;25.16;39.27
32237;BME280;18726;44.732;10.550;2023-02-18T10:50:49;102330.94;;;22.64;42.55
32237;BME280;18726;44.732;10.550;2023-02-18T10:53:54;102331.97;;;23.29;42.63
32237;BME280;18726;44.732;10.550;2023-02-18T10:56:59;102319.25;;;24.34;41.69
32237;BME280;18726;44.732;10.550;2023-02-18T11:03:21;102307.69;;;25.30;39.65
32237;BME280;18726;44.732;10.550;2023-02-18T11:09:42;102293.84;;;21.55;43.01
32237;BME280;18726;44.732;10.550;2023-02-18T11:12:58;102287.75;;;21.87;43.95
32237;BME280;18726;44.732;10.550;2023-02-18T11:16:05;102276.81;;;22.01;45.97
32237;BME280;18726;44.732;10.550;2023-02-18T11:19:35;102277.41;;;20.02;47.26
32237;BME280;18726;44.732;10.550;2023-02-18T11:22:39;102268.94;;;20.74;47.11
32237;BME280;18726;44.732;10.550;2023-02-18T11:26:03;102272.19;;;21.65;49.74
32237;BME280;18726;44.732;10.550;2023-02-18T11:29:22;102264.16;;;22.04;46.93
32237;BME280;18726;44.732;10.550;2023-02-18T11:32:28;102256.50;;;21.83;47.29
32237;BME280;18726;44.732;10.550;2023-02-18T11:35:33;102243.81;;;21.27;46.00
32237;BME280;18726;44.732;10.550;2023-02-18T11:38:43;102247.16;;;20.69;47.85
32237;BME280;18726;44.732;10.550;2023-02-18T11:44:58;102238.69;;;20.25;49.74
32237;BME280;18726;44.732;10.550;2023-02-18T11:48:18;102234.72;;;18.78;54.04
32237;BME280;18726;44.732;10.550;2023-02-18T11:51:29;102227.84;;;18.88;61.17
32237;BME280;18726;44.732;10.550;2023-02-18T11:54:35;102219.94;;;17.90;60.14
32237;BME280;18726;44.732;10.550;2023-02-18T11:57:43;102223.78;;;18.05;68.37
32237;BME280;18726;44.732;10.550;2023-02-18T12:00:50;102214.19;;;18.72;61.72
32237;BME280;18726;44.732;10.550;2023-02-18T12:04:07;102212.53;;;18.68;61.05
32237;BME280;18726;44.732;10.550;2023-02-18T12:07:21;102212.31;;;18.18;60.96
32237;BME280;18726;44.732;10.550;2023-02-18T12:10:42;102199.88;;;17.90;67.98
32237;BME280;18726;44.732;10.550;2023-02-18T12:13:52;102203.66;;;18.59;67.67
32237;BME280;18726;44.732;10.550;2023-02-18T12:23:26;102168.22;;;20.01;68.94
32237;BME280;18726;44.732;10.550;2023-02-18T12:46:20;102148.59;;;20.06;60.36
32237;BME280;18726;44.732;10.550;2023-02-18T13:10:20;102113.50;;;19.73;61.11
32237;BME280;18726;44.732;10.550;2023-02-18T13:13:39;102105.38;;;19.54;59.69
32237;BME280;18726;44.732;10.550;2023-02-18T13:16:48;102095.13;;;19.02;67.58
32237;BME280;18726;44.732;10.550;2023-02-18T13:20:05;102099.97;;;19.38;64.66
32237;BME280;18726;44.732;10.550;2023-02-18T13:23:19;102089.38;;;19.67;67.58
32237;BME280;18726;44.732;10.550;2023-02-18T13:26:24;102088.50;;;18.83;62.11
32237;BME280;18726;44.732;10.550;2023-02-18T13:29:35;102080.13;;;17.92;64.63
32237;BME280;18726;44.732;10.550;2023-02-18T13:36:54;102060.94;;;17.57;70.74
32237;BME280;18726;44.732;10.550;2023-02-18T13:39:32;102060.97;;;17.76;66.01
32237;BME280;18726;44.732;10.550;2023-02-18T13:42:36;102062.19;;;17.79;67.89
32237;BME280;18726;44.732;10.550;2023-02-18T13:45:40;102054.22;;;18.12;73.19
32237;BME280;18726;44.732;10.550;2023-02-18T13:48:49;102047.44;;;17.87;67.63
32237;BME280;18726;44.732;10.550;2023-02-18T13:51:54;102050.03;;;17.61;70.24
32237;BME280;18726;44.732;10.550;2023-02-18T13:54:59;102050.72;;;16.87;68.40
32237;BME280;18726;44.732;10.550;2023-02-18T13:58:03;102043.34;;;16.60;71.41
32237;BME280;18726;44.732;10.550;2023-02-18T14:07:50;102034.41;;;16.63;74.01
32237;BME280;18726;44.732;10.550;2023-02-18T14:14:37;102022.03;;;17.55;74.82
32237;BME280;18726;44.732;10.550;2023-02-18T14:17:42;102020.78;;;17.52;68.36
32237;BME280;18726;44.732;10.550;2023-02-18T14:20:47;102016.03;;;17.49;72.79
32237;BME280;18726;44.732;10.550;2023-02-18T14:23:59;102017.03;;;17.06;70.62
32237;BME280;18726;44.732;10.550;2023-02-18T14:27:14;102014.41;;;16.78;70.86
32237;BME280;18726;44.732;10.550;2023-02-18T14:33:25;102008.94;;;16.63;71.45
32237;BME280;18726;44.732;10.550;2023-02-18T14:37:06;102007.50;;;16.53;73.44
32237;BME280;18726;44.732;10.550;2023-02-18T14:40:18;102008.50;;;16.45;72.88
32237;BME280;18726;44.732;10.550;2023-02-18T14:43:46;102001.06;;;16.45;72.21
32237;BME280;18726;44.732;10.550;2023-02-18T14:50:29;101994.66;;;16.26;74.26
32237;BME280;18726;44.732;10.550;2023-02-18T14:53:41;101990.88;;;16.14;74.12
32237;BME280;18726;44.732;10.550;2023-02-18T14:56:59;101982.00;;;16.05;75.79
32237;BME280;18726;44.732;10.550;2023-02-18T15:00:06;101974.94;;;16.04;75.21
32237;BME280;18726;44.732;10.550;2023-02-18T15:03:18;101974.47;;;15.86;74.98
32237;BME280;18726;44.732;10.550;2023-02-18T15:09:29;101981.50;;;15.72;76.77
32237;BME280;18726;44.732;10.550;2023-02-18T15:12:33;101980.84;;;15.63;76.64
32237;BME280;18726;44.732;10.550;2023-02-18T15:15:37;101973.69;;;15.58;78.04
32237;BME280;18726;44.732;10.550;2023-02-18T15:18:50;101972.63;;;15.63;77.49
32237;BME280;18726;44.732;10.550;2023-02-18T15:21:56;101972.38;;;15.68;79.19
32237;BME280;18726;44.732;10.550;2023-02-18T15:25:01;101975.75;;;15.77;79.15
32237;BME280;18726;44.732;10.550;2023-02-18T15:28:30;101981.44;;;15.84;79.16
32237;BME280;18726;44.732;10.550;2023-02-18T15:31:36;101973.84;;;15.93;79.33
32237;BME280;18726;44.732;10.550;2023-02-18T15:34:41;101978.16;;;15.78;80.70
32237;BME280;18726;44.732;10.550;2023-02-18T15:37:51;101977.84;;;15.68;79.73
32237;BME280;18726;44.732;10.550;2023-02-18T15:40:57;101970.47;;;15.84;82.68
32237;BME280;18726;44.732;10.550;2023-02-18T15:44:04;101975.09;;;15.96;84.85
32237;BME280;18726;44.732;10.550;2023-02-18T15:47:10;101972.06;;;15.85;84.26
32237;BME280;18726;44.732;10.550;2023-02-18T15:50:20;101966.19;;;15.71;84.74
32237;BME280;18726;44.732;10.550;2023-02-18T15:53:25;101965.41;;;15.70;88.00
32237;BME280;18726;44.732;10.550;2023-02-18T15:56:34;101964.59;;;15.70;87.64
32237;BME280;18726;44.732;10.550;2023-02-18T15:59:53;101972.38;;;15.68;88.17
32237;BME280;18726;44.732;10.550;2023-02-18T16:03:04;101968.28;;;15.62;87.65
32237;BME280;18726;44.732;10.550;2023-02-18T16:06:20;101961.81;;;15.54;85.97
32237;BME280;18726;44.732;10.550;2023-02-18T16:09:25;101964.22;;;15.43;87.26
32237;BME280;18726;44.732;10.550;2023-02-18T16:12:30;101967.25;;;15.26;88.06
32237;BME280;18726;44.732;10.550;2023-02-18T16:15:40;101967.03;;;15.19;87.45
32237;BME280;18726;44.732;10.550;2023-02-18T16:18:44;101968.88;;;15.03;88.36
32237;BME280;18726;44.732;10.550;2023-02-18T16:21:49;101962.75;;;14.94;93.48
32237;BME280;18726;44.732;10.550;2023-02-18T16:24:59;101953.66;;;14.90;98.05
32237;BME280;18726;44.732;10.550;2023-02-18T16:28:10;101960.94;;;14.85;99.07
32237;BME280;18726;44.732;10.550;2023-02-18T16:31:15;101953.31;;;14.79;95.96
32237;BME280;18726;44.732;10.550;2023-02-18T16:34:19;101952.75;;;14.61;92.28
32237;BME280;18726;44.732;10.550;2023-02-18T16:37:23;101958.91;;;14.46;94.50
32237;BME280;18726;44.732;10.550;2023-02-18T16:40:41;101950.69;;;14.46;100.00
32237;BME280;18726;44.732;10.550;2023-02-18T16:43:45;101956.41;;;14.53;100.00
32237;BME280;18726;44.732;10.550;2023-02-18T16:46:48;101947.97;;;14.58;100.00
32237;BME280;18726;44.732;10.550;2023-02-18T16:49:53;101955.84;;;14.60;100.00
32237;BME280;18726;44.732;10.550;2023-02-18T16:52:58;101957.09;;;14.62;100.00
32237;BME280;18726;44.732;10.550;2023-02-18T16:56:02;101951.94;;;14.48;100.00
32237;BME280;18726;44.732;10.550;2023-02-18T16:59:06;101968.44;;;14.28;100.00
32237;BME280;18726;44.732;10.550;2023-02-18T17:02:18;101974.09;;;14.23;100.00
32237;BME280;18726;44.732;10.550;2023-02-18T17:05:25;101979.81;;;14.30;100.00
32237;BME280;18726;44.732;10.550;2023-02-18T17:08:30;101974.81;;;14.32;100.00
32237;BME280;18726;44.732;10.550;2023-02-18T17:11:34;101978.22;;;14.29;100.00
32237;BME280;18726;44.732;10.550;2023-02-18T17:14:38;101988.00;;;14.17;100.00
32237;BME280;18726;44.732;10.550;2023-02-18T17:17:42;101982.97;;;14.07;100.00
32237;BME280;18726;44.732;10.550;2023-02-18T17:20:50;101992.19;;;14.03;100.00
32237;BME280;18726;44.732;10.550;2023-02-18T17:23:54;102002.31;;;14.02;100.00
32237;BME280;18726;44.732;10.550;2023-02-18T17:26:58;102000.63;;;13.77;100.00
32237;BME280;18726;44.732;10.550;2023-02-18T17:30:02;102002.06;;;13.41;100.00
32237;BME280;18726;44.732;10.550;2023-02-18T17:33:07;102000.38;;;13.28;100.00
32237;BME280;18726;44.732;10.550;2023-02-18T17:36:15;102006.53;;;13.25;100.00
32237;BME280;18726;44.732;10.550;2023-02-18T17:39:19;102010.72;;;13.14;100.00
32237;BME280;18726;44.732;10.550;2023-02-18T17:42:23;102016.66;;;12.87;100.00
32237;BME280;18726;44.732;10.550;2023-02-18T17:48:31;102013.34;;;13.02;100.00
32237;BME280;18726;44.732;10.550;2023-02-18T17:51:36;102011.38;;;13.11;100.00
32237;BME280;18726;44.732;10.550;2023-02-18T17:54:40;102013.09;;;13.24;100.00
32237;BME280;18726;44.732;10.550;2023-02-18T17:57:44;102020.63;;;13.27;100.00
32237;BME280;18726;44.732;10.550;2023-02-18T18:00:54;102013.56;;;13.26;100.00
32237;BME280;18726;44.732;10.550;2023-02-18T18:03:58;102021.22;;;13.03;100.00
32237;BME280;18726;44.732;10.550;2023-02-18T18:07:02;102017.94;;;12.51;100.00
32237;BME280;18726;44.732;10.550;2023-02-18T18:10:06;102016.28;;;12.21;100.00
32237;BME280;18726;44.732;10.550;2023-02-18T18:13:18;102012.50;;;12.42;100.00
32237;BME280;18726;44.732;10.550;2023-02-18T18:16:22;102007.91;;;12.34;100.00